createdAt,value
2019-04-11T00:00:57.562Z,15.50
2019-04-11T00:03:27.341Z,14.83
2019-04-11T00:05:57.123Z,15.60
2019-04-11T00:08:27.952Z,15.28
2019-04-11T00:10:57.708Z,15.43
2019-04-11T00:13:29.942Z,15.95
2019-04-11T00:15:59.375Z,15.35
2019-04-11T00:18:28.995Z,14.80
2019-04-11T00:20:58.605Z,15.32
2019-04-11T00:23:28.241Z,14.63
2019-04-11T00:25:58.093Z,14.68
2019-04-11T00:28:27.896Z,15.25
2019-04-11T00:30:58.698Z,14.23
2019-04-11T00:33:28.591Z,15.05
2019-04-11T00:35:58.270Z,15.10
2019-04-11T00:38:28.019Z,14.18
2019-04-11T00:40:57.652Z,14.40
2019-04-11T00:43:34.288Z,14.23
2019-04-11T00:45:58.830Z,14.73
2019-04-11T00:48:28.587Z,15.15
2019-04-11T00:50:59.257Z,13.72
2019-04-11T00:53:29.863Z,14.43
2019-04-11T00:55:59.887Z,14.83
2019-04-11T00:58:29.753Z,14.28
2019-04-11T01:00:59.774Z,14.33
2019-04-11T01:03:30.434Z,14.45
2019-04-11T01:05:59.976Z,14.18
2019-04-11T01:08:29.595Z,14.78
2019-04-11T01:10:59.476Z,13.95
2019-04-11T01:13:39.736Z,13.68
2019-04-11T01:16:06.988Z,13.73
2019-04-11T01:18:36.747Z,13.32
2019-04-11T01:21:06.329Z,13.62
2019-04-11T01:23:35.954Z,13.90
2019-04-11T01:26:05.573Z,13.38
2019-04-11T01:28:35.190Z,13.62
2019-04-11T01:31:06.455Z,13.60
2019-04-11T01:33:36.161Z,14.00
2019-04-11T01:36:06.891Z,13.60
2019-04-11T01:38:38.718Z,14.03
2019-04-11T01:41:08.239Z,13.18
2019-04-11T01:43:37.905Z,13.43
2019-04-11T01:46:07.778Z,13.25
2019-04-11T01:48:39.621Z,13.28
2019-04-11T01:51:09.641Z,13.25
2019-04-11T01:53:40.991Z,13.50
2019-04-11T01:56:10.773Z,13.00
2019-04-11T01:58:40.640Z,12.50
2019-04-11T02:01:21.375Z,13.62
2019-04-11T02:03:52.792Z,13.13
2019-04-11T02:06:23.574Z,12.23
2019-04-11T02:08:53.473Z,12.85
2019-04-11T02:11:23.496Z,11.93
2019-04-11T02:14:05.083Z,13.22
2019-04-11T02:16:25.205Z,12.20
2019-04-11T02:18:56.073Z,12.47
2019-04-11T02:21:25.893Z,11.95
2019-04-11T02:23:57.299Z,12.78
2019-04-11T02:26:29.344Z,12.93
2019-04-11T02:28:59.371Z,13.15
2019-04-11T02:31:30.606Z,12.90
2019-04-11T02:34:02.440Z,13.22
2019-04-11T02:36:34.138Z,12.65
2019-04-11T02:39:11.761Z,12.03
2019-04-11T02:41:39.586Z,12.07
2019-04-11T02:44:28.660Z,12.18
2019-04-11T02:46:47.900Z,11.80
2019-04-11T02:49:11.614Z,11.80
2019-04-11T02:51:42.817Z,12.05
2019-04-11T02:54:15.698Z,11.68
2019-04-11T02:56:45.593Z,11.30
2019-04-11T02:59:17.688Z,12.98
2019-04-11T03:01:48.631Z,12.50
2019-04-11T03:04:20.296Z,12.45
2019-04-11T03:06:51.963Z,12.30
2019-04-11T03:09:23.725Z,11.48
2019-04-11T03:11:54.655Z,11.75
2019-04-11T03:14:25.143Z,12.65
2019-04-11T03:17:02.458Z,11.97
2019-04-11T03:19:42.420Z,11.45
2019-04-11T03:21:59.406Z,12.28
2019-04-11T03:24:31.612Z,12.15
2019-04-11T03:27:04.567Z,12.25
2019-04-11T03:29:33.821Z,12.35
2019-04-11T03:32:36.919Z,12.75
2019-04-11T03:35:20.725Z,13.53
2019-04-11T03:37:26.094Z,13.83
2019-04-11T03:39:59.241Z,12.37
2019-04-11T03:42:29.678Z,13.35
2019-04-11T03:44:47.281Z,13.70
2019-04-11T03:47:27.731Z,13.10
2019-04-11T03:49:52.110Z,13.28
2019-04-11T03:52:17.187Z,13.22
2019-04-11T03:54:49.552Z,12.98
2019-04-11T03:57:21.510Z,13.22
2019-04-11T03:59:52.055Z,12.73
2019-04-11T04:02:22.580Z,12.73
2019-04-11T04:04:54.224Z,12.35
2019-04-11T04:07:24.231Z,12.78
2019-04-11T04:09:54.516Z,12.03
2019-04-11T04:12:27.171Z,12.78
2019-04-11T04:14:59.261Z,12.60
2019-04-11T04:17:49.899Z,12.78
2019-04-11T04:20:42.035Z,12.68
2019-04-11T04:23:14.185Z,12.58
2019-04-11T04:25:47.040Z,12.85
2019-04-11T04:28:15.932Z,13.58
2019-04-11T04:30:46.987Z,13.58
2019-04-11T04:33:17.202Z,13.73
2019-04-11T04:35:49.636Z,13.93
2019-04-11T04:38:21.102Z,13.93
2019-04-11T04:41:08.869Z,14.00
2019-04-11T04:43:24.964Z,13.48
2019-04-11T04:46:13.682Z,13.55
2019-04-11T04:48:27.217Z,13.83
2019-04-11T04:51:01.668Z,13.43
2019-04-11T04:53:30.807Z,13.22
2019-04-11T04:56:02.531Z,13.88
2019-04-11T04:58:33.770Z,14.33
2019-04-11T05:01:05.758Z,14.07
2019-04-11T05:03:34.919Z,13.98
2019-04-11T05:06:04.795Z,14.50
2019-04-11T05:08:34.812Z,14.00
2019-04-11T05:11:04.768Z,13.90
2019-04-11T05:13:34.661Z,14.43
2019-04-11T05:16:15.105Z,14.25
2019-04-11T05:18:37.453Z,14.13
2019-04-11T05:21:07.234Z,13.53
2019-04-11T05:23:37.427Z,14.15
2019-04-11T05:26:08.899Z,14.55
2019-04-11T05:28:39.350Z,14.38
2019-04-11T05:31:10.181Z,14.28
2019-04-11T05:33:40.120Z,15.10
2019-04-11T05:36:10.183Z,14.83
2019-04-11T05:38:40.072Z,14.83
2019-04-11T05:41:12.209Z,14.18
2019-04-11T05:43:41.744Z,14.93
2019-04-11T05:46:26.338Z,14.70
2019-04-11T05:49:03.870Z,15.13
2019-04-11T05:51:40.953Z,14.83
2019-04-11T05:54:08.042Z,14.45
2019-04-11T05:56:38.810Z,15.25
2019-04-11T05:59:10.113Z,15.23
2019-04-11T06:01:42.526Z,15.13
2019-04-11T06:04:16.144Z,15.20
2019-04-11T06:06:50.628Z,15.72
2019-04-11T06:09:22.964Z,15.93
2019-04-11T06:11:57.985Z,16.23
2019-04-11T06:14:33.111Z,14.87
2019-04-11T06:17:05.184Z,15.58
2019-04-11T06:19:39.708Z,15.90
2019-04-11T06:22:10.830Z,15.13
2019-04-11T06:24:56.442Z,16.15
2019-04-11T06:27:28.492Z,16.05
2019-04-11T06:30:03.383Z,15.72
2019-04-11T06:32:38.380Z,15.28
2019-04-11T06:35:22.071Z,15.68
2019-04-11T06:38:10.104Z,15.70
2019-04-11T06:40:44.453Z,15.63
2019-04-11T06:43:18.679Z,15.95
2019-04-11T06:45:49.986Z,16.40
2019-04-11T06:48:27.441Z,15.55
2019-04-11T06:51:01.876Z,16.12
2019-04-11T06:53:34.109Z,15.78
2019-04-11T06:56:14.904Z,16.12
2019-04-11T06:58:46.246Z,16.00
2019-04-11T07:01:20.522Z,16.15
2019-04-11T07:03:51.875Z,15.32
2019-04-11T07:06:23.858Z,16.17
2019-04-11T07:08:58.902Z,16.10
2019-04-11T07:11:45.499Z,16.17
2019-04-11T07:14:25.398Z,16.35
2019-04-11T07:17:13.784Z,16.95
2019-04-11T07:20:04.450Z,17.17
2019-04-11T07:22:52.221Z,16.48
2019-04-11T07:25:23.566Z,17.23
2019-04-11T07:28:12.982Z,17.17
2019-04-11T07:31:00.541Z,17.07
2019-04-11T07:33:33.118Z,16.87
2019-04-11T07:36:21.166Z,17.48
2019-04-11T07:39:07.959Z,17.62
2019-04-11T07:41:41.044Z,17.87
2019-04-11T07:44:26.858Z,17.52
2019-04-11T07:47:18.818Z,17.35
2019-04-11T07:49:46.434Z,16.90
2019-04-11T07:52:17.597Z,17.50
2019-04-11T07:54:47.754Z,18.40
2019-04-11T07:57:36.207Z,18.32
2019-04-11T08:00:12.729Z,18.35
2019-04-11T08:02:53.309Z,18.87
2019-04-11T08:05:40.898Z,18.85
2019-04-11T08:08:15.428Z,18.65
2019-04-11T08:10:50.557Z,19.73
2019-04-11T08:13:38.813Z,19.00
2019-04-11T08:16:26.744Z,18.40
2019-04-11T08:19:04.176Z,18.85
2019-04-11T08:21:52.543Z,19.98
2019-04-11T08:24:40.578Z,19.87
2019-04-11T08:27:28.065Z,19.92
2019-04-11T08:30:00.363Z,19.70
2019-04-11T08:32:51.946Z,20.35
2019-04-11T08:35:36.499Z,19.92
2019-04-11T08:38:12.486Z,20.30
2019-04-11T08:40:45.065Z,19.92
2019-04-11T08:43:26.872Z,18.37
2019-04-11T08:45:58.322Z,18.25
2019-04-11T08:48:29.865Z,19.00
2019-04-11T08:51:08.210Z,18.20
2019-04-11T08:53:44.823Z,18.35
2019-04-11T08:56:16.411Z,18.48
2019-04-11T08:59:30.946Z,18.20
2019-04-11T09:02:02.696Z,17.45
2019-04-11T09:04:50.390Z,18.15
2019-04-11T09:07:29.691Z,19.27
2019-04-11T09:10:17.932Z,18.95
2019-04-11T09:12:58.565Z,19.10
2019-04-11T09:15:46.087Z,17.92
2019-04-11T09:18:17.736Z,17.30
2019-04-11T09:20:49.145Z,17.55
2019-04-11T09:23:19.761Z,17.70
2019-04-11T09:26:01.626Z,18.15
2019-04-11T09:28:34.181Z,17.55
2019-04-11T09:31:12.186Z,17.80
2019-04-11T09:33:42.398Z,18.03
2019-04-11T09:36:30.636Z,18.40
2019-04-11T09:39:19.266Z,17.55
2019-04-11T09:42:07.207Z,17.40
2019-04-11T09:44:48.907Z,16.83
2019-04-11T09:47:21.854Z,17.65
2019-04-11T09:50:09.857Z,18.05
2019-04-11T09:52:47.439Z,17.27
2019-04-11T09:55:35.320Z,18.07
2019-04-11T09:58:06.734Z,17.70
2019-04-11T10:00:45.231Z,16.37
2019-04-11T10:03:23.456Z,17.73
2019-04-11T10:05:55.219Z,16.87
2019-04-11T10:08:39.603Z,18.10
2019-04-11T10:11:13.980Z,17.40
2019-04-11T10:13:55.307Z,15.55
2019-04-11T10:16:28.255Z,15.70
2019-04-11T10:19:03.390Z,16.77
2019-04-11T10:21:35.165Z,16.00
2019-04-11T10:24:07.337Z,16.33
2019-04-11T10:26:52.031Z,15.93
2019-04-11T10:29:33.380Z,15.57
2019-04-11T10:32:04.124Z,15.50
2019-04-11T10:34:35.582Z,16.05
2019-04-11T10:37:07.539Z,16.57
2019-04-11T10:39:54.099Z,16.75
2019-04-11T10:42:24.831Z,16.62
2019-04-11T10:45:02.731Z,15.50
2019-04-11T10:47:34.238Z,16.75
2019-04-11T10:50:15.474Z,16.55
2019-04-11T10:52:48.837Z,16.27
2019-04-11T10:55:23.301Z,17.50
2019-04-11T10:58:06.866Z,17.12
2019-04-11T11:00:40.874Z,16.75
2019-04-11T11:03:22.048Z,17.27
2019-04-11T11:05:53.605Z,16.85
2019-04-11T11:08:25.670Z,17.35
2019-04-11T11:10:57.745Z,17.50
2019-04-11T11:13:43.902Z,16.52
2019-04-11T11:16:13.941Z,16.80
2019-04-11T11:19:20.674Z,16.52
2019-04-11T11:21:25.965Z,17.15
2019-04-11T11:24:05.386Z,17.42
2019-04-11T11:26:33.968Z,17.15
2019-04-11T11:29:10.412Z,17.82
2019-04-11T11:31:38.691Z,16.65
2019-04-11T11:34:15.686Z,15.97
2019-04-11T11:36:50.444Z,18.15
2019-04-11T11:39:24.761Z,16.93
2019-04-11T11:42:12.650Z,17.17
2019-04-11T11:44:44.705Z,16.52
2019-04-11T11:47:35.698Z,16.90
2019-04-11T11:50:07.426Z,16.70
2019-04-11T11:52:42.460Z,16.90
2019-04-11T11:55:19.021Z,16.12
2019-04-11T11:57:55.799Z,15.90
2019-04-11T12:00:27.204Z,15.77
2019-04-11T12:03:02.425Z,14.87
2019-04-11T12:05:36.661Z,16.37
2019-04-11T12:08:10.784Z,15.85
2019-04-11T12:10:41.663Z,15.90
2019-04-11T12:13:30.362Z,15.63
2019-04-11T12:16:07.939Z,13.93
2019-04-11T12:18:54.297Z,13.87
2019-04-11T12:21:29.722Z,13.72
2019-04-11T12:24:05.602Z,14.13
2019-04-11T12:26:33.969Z,13.85
2019-04-11T12:29:20.176Z,13.53
2019-04-11T12:31:52.311Z,13.25
2019-04-11T12:34:24.071Z,15.13
2019-04-11T12:36:54.827Z,15.05
2019-04-11T12:39:44.839Z,17.57
2019-04-11T12:42:22.045Z,15.28
2019-04-11T12:45:10.039Z,15.78
2019-04-11T12:47:40.090Z,21.77
2019-04-11T12:50:23.871Z,15.60
2019-04-11T12:52:55.200Z,14.97
2019-04-11T12:55:26.494Z,14.33
2019-04-11T12:58:12.842Z,16.27
2019-04-11T13:00:59.304Z,15.68
2019-04-11T13:03:39.521Z,19.03
2019-04-11T13:06:34.834Z,15.58
2019-04-11T13:09:15.279Z,14.80
2019-04-11T13:11:55.545Z,17.35
2019-04-11T13:14:36.148Z,18.02
2019-04-11T13:17:10.288Z,15.60
2019-04-11T13:20:04.570Z,15.45
2019-04-11T13:22:30.746Z,14.85
2019-04-11T13:25:02.364Z,16.10
2019-04-11T13:27:33.871Z,15.10
2019-04-11T13:30:24.520Z,15.53
2019-04-11T13:32:56.275Z,18.98
2019-04-11T13:35:37.313Z,17.17
2019-04-11T13:38:09.085Z,14.90
2019-04-11T13:40:46.942Z,15.68
2019-04-11T13:43:21.481Z,15.10
2019-04-11T13:45:53.803Z,15.35
2019-04-11T13:48:41.976Z,14.43
2019-04-11T13:51:14.251Z,14.10
2019-04-11T13:54:02.043Z,14.80
2019-04-11T13:56:33.367Z,15.28
2019-04-11T13:59:13.803Z,15.55
2019-04-11T14:01:51.078Z,14.83
2019-04-11T14:04:22.372Z,14.65
2019-04-11T14:06:52.530Z,14.33
2019-04-11T14:09:30.741Z,14.70
2019-04-11T14:12:04.860Z,14.80
2019-04-11T14:14:32.964Z,18.07
2019-04-11T14:17:05.561Z,14.47
2019-04-11T14:19:53.254Z,15.28
2019-04-11T14:22:28.997Z,17.07
2019-04-11T14:24:57.816Z,20.68
2019-04-11T14:27:28.874Z,16.70
2019-04-11T14:30:00.163Z,20.68
2019-04-11T14:32:31.473Z,16.40
2019-04-11T14:35:08.618Z,20.25
2019-04-11T14:37:42.932Z,13.60
2019-04-11T14:40:29.615Z,23.67
2019-04-11T14:43:03.961Z,17.15
2019-04-11T14:45:36.745Z,15.70
2019-04-11T14:48:14.563Z,13.95
2019-04-11T14:51:04.021Z,15.78
2019-04-11T14:53:39.542Z,13.90
2019-04-11T14:56:10.821Z,23.55
2019-04-11T14:58:42.462Z,16.55
2019-04-11T15:01:19.751Z,13.53
2019-04-11T15:03:51.000Z,13.48
2019-04-11T15:06:25.088Z,13.32
2019-04-11T15:08:56.440Z,14.30
2019-04-11T15:11:33.733Z,13.13
2019-04-11T15:14:17.681Z,30.00
2019-04-11T15:16:55.202Z,17.73
2019-04-11T15:19:24.959Z,15.80
2019-04-11T15:22:03.969Z,24.82
2019-04-11T15:24:37.481Z,23.02
2019-04-11T15:27:22.993Z,21.23
2019-04-11T15:29:54.142Z,16.75
2019-04-11T15:32:40.704Z,15.13
2019-04-11T15:35:10.439Z,13.77
2019-04-11T15:37:58.095Z,14.67
2019-04-11T15:40:27.864Z,16.48
2019-04-11T15:43:02.119Z,16.32
2019-04-11T15:45:33.633Z,21.27
2019-04-11T15:48:17.817Z,14.45
2019-04-11T15:51:06.981Z,22.20
2019-04-11T15:53:41.546Z,18.63
2019-04-11T15:56:29.952Z,323.15
2019-04-11T15:59:04.280Z,197.00
2019-04-11T16:01:52.100Z,74.05
2019-04-11T16:04:29.610Z,20.92
2019-04-11T16:07:13.466Z,37.25
2019-04-11T16:09:57.038Z,57.88
2019-04-11T16:12:29.391Z,51.55
2019-04-11T16:15:18.788Z,38.58
2019-04-11T16:18:06.618Z,185.17
2019-04-11T16:20:36.627Z,33.90
2019-04-11T16:23:16.891Z,33.23
2019-04-11T16:25:48.187Z,185.67
2019-04-11T16:28:20.612Z,70.32
2019-04-11T16:30:57.849Z,66.90
2019-04-11T16:33:47.150Z,177.20
2019-04-11T16:36:18.438Z,35.07
2019-04-11T16:38:50.410Z,34.63
2019-04-11T16:41:39.403Z,27.00
2019-04-11T16:44:26.980Z,143.30
2019-04-11T16:47:04.312Z,662.38
2019-04-11T16:49:34.123Z,344.85
2019-04-11T16:52:07.384Z,187.22
2019-04-11T16:54:35.211Z,112.23
2019-04-11T16:57:05.134Z,22.13
2019-04-11T16:59:35.260Z,20.80
2019-04-11T17:02:05.319Z,27.03
2019-04-11T17:04:36.274Z,205.03
2019-04-11T17:07:07.558Z,32.63
2019-04-11T17:09:38.899Z,188.82
2019-04-11T17:12:09.630Z,74.80
2019-04-11T17:14:39.395Z,488.03
2019-04-11T17:17:14.988Z,303.05
2019-04-11T17:19:40.543Z,651.30
2019-04-11T17:22:10.259Z,584.13
2019-04-11T17:24:40.012Z,42.03
2019-04-11T17:27:09.730Z,312.50
2019-04-11T17:29:39.464Z,225.62
2019-04-11T17:32:09.192Z,252.28
2019-04-11T17:34:38.903Z,247.40
2019-04-11T17:37:08.670Z,152.60
2019-04-11T17:39:38.311Z,63.65
2019-04-11T17:42:13.277Z,21.37
2019-04-11T17:44:42.344Z,32.23
2019-04-11T17:47:12.089Z,22.95
2019-04-11T17:49:41.801Z,20.57
2019-04-11T17:52:11.518Z,19.50
2019-04-11T17:54:41.239Z,18.95
2019-04-11T17:57:10.989Z,25.40
2019-04-11T17:59:40.716Z,32.83
2019-04-11T18:02:11.146Z,23.25
2019-04-11T18:04:44.063Z,34.78
2019-04-11T18:07:16.871Z,49.00
2019-04-11T18:09:44.012Z,47.48
2019-04-11T18:12:14.814Z,30.08
2019-04-11T18:14:44.536Z,41.53
2019-04-11T18:17:16.478Z,28.47
2019-04-11T18:19:45.914Z,24.77
2019-04-11T18:22:15.700Z,21.40
2019-04-11T18:24:45.409Z,16.00
2019-04-11T18:27:15.089Z,17.75
2019-04-11T18:29:44.802Z,29.70
2019-04-11T18:32:15.549Z,25.77
2019-04-11T18:34:45.286Z,25.32
2019-04-11T18:37:15.048Z,24.70
2019-04-11T18:39:44.777Z,21.10
2019-04-11T18:42:14.514Z,28.35
2019-04-11T18:44:44.339Z,26.10
2019-04-11T18:47:14.051Z,19.73
2019-04-11T18:49:43.794Z,22.73
2019-04-11T18:52:29.130Z,22.77
2019-04-11T18:54:59.039Z,22.98
2019-04-11T18:57:29.042Z,28.10
2019-04-11T18:59:58.750Z,41.70
2019-04-11T19:02:28.471Z,28.63
2019-04-11T19:04:58.216Z,34.98
2019-04-11T19:07:28.299Z,23.80
2019-04-11T19:09:58.036Z,28.15
2019-04-11T19:12:28.802Z,21.82
2019-04-11T19:14:58.517Z,19.52
2019-04-11T19:17:30.299Z,21.80
2019-04-11T19:19:59.510Z,34.83
2019-04-11T19:22:37.430Z,31.62
2019-04-11T19:25:00.634Z,26.00
2019-04-11T19:27:30.350Z,17.73
2019-04-11T19:30:00.243Z,19.98
2019-04-11T19:32:29.966Z,18.25
2019-04-11T19:34:59.697Z,20.70
2019-04-11T19:37:29.342Z,21.80
2019-04-11T19:39:59.063Z,18.60
2019-04-11T19:42:28.919Z,31.62
2019-04-11T19:44:58.636Z,27.98
2019-04-11T19:47:28.377Z,21.33
2019-04-11T19:49:58.831Z,22.22
2019-04-11T19:52:29.920Z,21.62
2019-04-11T19:55:04.665Z,21.75
2019-04-11T19:57:33.303Z,36.90
2019-04-11T20:00:05.961Z,82.03
2019-04-11T20:02:38.963Z,39.92
2019-04-11T20:05:12.138Z,22.67
2019-04-11T20:07:41.455Z,19.57
2019-04-11T20:10:11.202Z,17.97
2019-04-11T20:12:40.906Z,19.35
2019-04-11T20:15:10.547Z,16.93
2019-04-11T20:17:44.545Z,14.90
2019-04-11T20:20:11.630Z,15.25
2019-04-11T20:22:41.348Z,17.73
2019-04-11T20:25:11.099Z,18.20
2019-04-11T20:27:42.090Z,16.30
2019-04-11T20:30:11.942Z,16.52
2019-04-11T20:32:41.641Z,18.67
2019-04-11T20:35:11.362Z,14.90
2019-04-11T20:37:44.435Z,14.05
2019-04-11T20:40:17.364Z,14.95
2019-04-11T20:42:44.598Z,17.55
2019-04-11T20:45:14.407Z,15.00
2019-04-11T20:47:44.162Z,15.70
2019-04-11T20:50:13.866Z,16.75
2019-04-11T20:52:43.590Z,15.45
2019-04-11T20:55:13.342Z,15.00
2019-04-11T20:57:43.050Z,12.73
2019-04-11T21:00:13.121Z,13.18
2019-04-11T21:02:42.807Z,14.87
2019-04-11T21:05:12.521Z,13.55
2019-04-11T21:07:42.234Z,17.15
2019-04-11T21:10:11.959Z,15.38
2019-04-11T21:12:42.482Z,12.95
2019-04-11T21:15:12.186Z,14.98
2019-04-11T21:17:41.858Z,13.58
2019-04-11T21:20:11.669Z,13.48
2019-04-11T21:22:41.399Z,13.05
2019-04-11T21:25:11.391Z,12.63
2019-04-11T21:27:41.150Z,12.63
2019-04-11T21:30:11.480Z,12.05
2019-04-11T21:32:41.233Z,16.50
2019-04-11T21:35:11.338Z,15.85
2019-04-11T21:37:41.010Z,16.00
2019-04-11T21:40:10.934Z,13.35
2019-04-11T21:42:40.664Z,13.55
2019-04-11T21:45:10.482Z,13.28
2019-04-11T21:47:40.195Z,12.73
2019-04-11T21:50:10.358Z,12.45
2019-04-11T21:52:43.423Z,11.75
2019-04-11T21:55:16.040Z,12.40
2019-04-11T21:57:48.429Z,14.75
2019-04-11T22:00:26.380Z,14.25
2019-04-11T22:02:57.742Z,13.55
2019-04-11T22:05:29.209Z,12.63
2019-04-11T22:08:00.945Z,11.97
2019-04-11T22:10:30.586Z,11.57
2019-04-11T22:13:04.359Z,12.20
2019-04-11T22:15:34.118Z,12.15
2019-04-11T22:18:04.927Z,11.18
2019-04-11T22:20:34.704Z,11.83
2019-04-11T22:23:04.423Z,11.93
2019-04-11T22:25:34.169Z,12.85
2019-04-11T22:28:03.866Z,12.83
2019-04-11T22:30:33.598Z,12.75
2019-04-11T22:33:04.878Z,13.68
2019-04-11T22:35:34.594Z,12.03
2019-04-11T22:38:04.289Z,11.80
2019-04-11T22:40:33.996Z,11.83
2019-04-11T22:43:07.531Z,12.00
2019-04-11T22:45:37.671Z,11.97
2019-04-11T22:48:08.452Z,12.15
2019-04-11T22:50:40.452Z,12.05
2019-04-11T22:53:12.867Z,13.05
2019-04-11T22:55:41.246Z,12.15
2019-04-11T22:58:13.700Z,12.80
2019-04-11T23:00:45.788Z,12.68
2019-04-11T23:03:17.050Z,12.75
2019-04-11T23:05:47.525Z,13.32
2019-04-11T23:08:19.226Z,13.70
2019-04-11T23:10:48.760Z,13.00
2019-04-11T23:13:18.515Z,12.83
2019-04-11T23:15:48.251Z,13.20
2019-04-11T23:18:18.002Z,12.55
2019-04-11T23:20:47.714Z,12.70
2019-04-11T23:23:17.358Z,12.23
2019-04-11T23:25:47.238Z,12.75
2019-04-11T23:28:16.990Z,13.38
2019-04-11T23:30:49.580Z,13.57
2019-04-11T23:33:19.023Z,13.25
2019-04-11T23:35:51.189Z,12.65
2019-04-11T23:38:23.672Z,12.85
2019-04-11T23:40:52.150Z,12.85
2019-04-11T23:43:21.833Z,12.00
2019-04-11T23:45:51.835Z,12.10
2019-04-11T23:48:23.741Z,12.80
2019-04-11T23:50:55.110Z,11.38
2019-04-11T23:53:28.370Z,12.43
2019-04-11T23:55:55.633Z,11.60
2019-04-11T23:58:27.011Z,12.03
